sensor_id;sensor_type;location;lat;lon;timestamp;pressure;altitude;pressure_sealevel;temperature;humidity
75891;BME280;64571;47.512;19.054;2024-01-27T00:00:32;100856.97;;;7.76;87.87
75891;BME280;64571;47.512;19.054;2024-01-27T00:03:35;100880.75;;;7.77;87.49
75891;BME280;64571;47.512;19.054;2024-01-27T00:06:37;100889.59;;;7.74;87.78
75891;BME280;64571;47.512;19.054;2024-01-27T00:09:40;100889.31;;;7.71;86.70
75891;BME280;64571;47.512;19.054;2024-01-27T00:12:43;100898.97;;;7.68;86.41
75891;BME280;64571;47.512;19.054;2024-01-27T00:15:45;100907.22;;;7.63;86.00
75891;BME280;64571;47.512;19.054;2024-01-27T00:18:48;100910.53;;;7.60;85.60
75891;BME280;64571;47.512;19.054;2024-01-27T00:21:51;100918.50;;;7.56;85.65
75891;BME280;64571;47.512;19.054;2024-01-27T00:24:53;100919.88;;;7.54;84.93
75891;BME280;64571;47.512;19.054;2024-01-27T00:27:56;100927.69;;;7.62;83.53
75891;BME280;64571;47.512;19.054;2024-01-27T00:30:58;100947.06;;;7.62;83.05
75891;BME280;64571;47.512;19.054;2024-01-27T00:34:01;100952.63;;;7.67;82.42
75891;BME280;64571;47.512;19.054;2024-01-27T00:37:04;100960.62;;;7.64;80.75
75891;BME280;64571;47.512;19.054;2024-01-27T00:40:08;100947.41;;;7.71;79.50
75891;BME280;64571;47.512;19.054;2024-01-27T00:43:11;100964.22;;;7.64;79.93
75891;BME280;64571;47.512;19.054;2024-01-27T00:46:14;100959.97;;;7.51;81.09
75891;BME280;64571;47.512;19.054;2024-01-27T00:49:16;100949.97;;;7.45;80.23
75891;BME280;64571;47.512;19.054;2024-01-27T00:52:19;100953.03;;;7.49;78.13
75891;BME280;64571;47.512;19.054;2024-01-27T00:55:22;100946.94;;;7.47;77.88
75891;BME280;64571;47.512;19.054;2024-01-27T00:58:24;100955.19;;;7.42;77.26
75891;BME280;64571;47.512;19.054;2024-01-27T01:01:27;100943.28;;;7.41;77.46
75891;BME280;64571;47.512;19.054;2024-01-27T01:04:30;100962.34;;;7.37;77.40
75891;BME280;64571;47.512;19.054;2024-01-27T01:07:33;100973.34;;;7.32;77.80
75891;BME280;64571;47.512;19.054;2024-01-27T01:10:35;100992.19;;;7.35;77.78
75891;BME280;64571;47.512;19.054;2024-01-27T01:13:38;100992.94;;;7.26;77.82
75891;BME280;64571;47.512;19.054;2024-01-27T01:16:41;101016.19;;;7.30;77.21
75891;BME280;64571;47.512;19.054;2024-01-27T01:19:43;101016.44;;;7.28;77.63
75891;BME280;64571;47.512;19.054;2024-01-27T01:22:46;101007.81;;;7.25;77.53
75891;BME280;64571;47.512;19.054;2024-01-27T01:25:48;101012.22;;;7.21;77.94
75891;BME280;64571;47.512;19.054;2024-01-27T01:28:51;100994.50;;;7.17;78.17
75891;BME280;64571;47.512;19.054;2024-01-27T01:31:54;100980.69;;;7.17;77.37
75891;BME280;64571;47.512;19.054;2024-01-27T01:34:56;100992.56;;;7.17;77.59
75891;BME280;64571;47.512;19.054;2024-01-27T01:37:59;101003.31;;;7.14;77.33
75891;BME280;64571;47.512;19.054;2024-01-27T01:41:02;100994.13;;;7.08;77.38
75891;BME280;64571;47.512;19.054;2024-01-27T01:44:04;101015.91;;;7.04;77.42
75891;BME280;64571;47.512;19.054;2024-01-27T01:47:07;101002.87;;;7.00;77.28
75891;BME280;64571;47.512;19.054;2024-01-27T01:50:10;100997.84;;;6.97;77.10
75891;BME280;64571;47.512;19.054;2024-01-27T01:53:13;100985.72;;;6.98;76.73
75891;BME280;64571;47.512;19.054;2024-01-27T01:56:15;100995.03;;;6.92;76.96
75891;BME280;64571;47.512;19.054;2024-01-27T01:59:18;100984.50;;;6.89;76.74
75891;BME280;64571;47.512;19.054;2024-01-27T02:02:21;100989.25;;;6.93;75.66
75891;BME280;64571;47.512;19.054;2024-01-27T02:05:24;100996.09;;;6.85;76.11
75891;BME280;64571;47.512;19.054;2024-01-27T02:08:27;100974.75;;;6.81;75.85
75891;BME280;64571;47.512;19.054;2024-01-27T02:11:29;101005.22;;;6.86;74.98
75891;BME280;64571;47.512;19.054;2024-01-27T02:14:32;100989.72;;;6.85;74.74
75891;BME280;64571;47.512;19.054;2024-01-27T02:17:35;100998.19;;;6.78;74.91
75891;BME280;64571;47.512;19.054;2024-01-27T02:20:37;101010.84;;;6.74;74.93
75891;BME280;64571;47.512;19.054;2024-01-27T02:23:40;101013.22;;;6.66;75.06
75891;BME280;64571;47.512;19.054;2024-01-27T02:26:43;101049.41;;;6.64;74.79
75891;BME280;64571;47.512;19.054;2024-01-27T02:29:45;101038.84;;;6.61;74.19
75891;BME280;64571;47.512;19.054;2024-01-27T02:32:48;101057.87;;;6.57;74.12
75891;BME280;64571;47.512;19.054;2024-01-27T02:35:51;101083.81;;;6.56;73.86
75891;BME280;64571;47.512;19.054;2024-01-27T02:38:53;101088.44;;;6.51;74.28
75891;BME280;64571;47.512;19.054;2024-01-27T02:41:56;101093.06;;;6.45;73.80
75891;BME280;64571;47.512;19.054;2024-01-27T02:44:58;101107.69;;;6.46;73.37
75891;BME280;64571;47.512;19.054;2024-01-27T02:48:01;101118.41;;;6.42;73.14
75891;BME280;64571;47.512;19.054;2024-01-27T02:51:04;101132.47;;;6.41;73.30
75891;BME280;64571;47.512;19.054;2024-01-27T02:54:07;101126.25;;;6.33;73.55
75891;BME280;64571;47.512;19.054;2024-01-27T02:57:09;101143.59;;;6.29;73.36
75891;BME280;64571;47.512;19.054;2024-01-27T03:00:12;101147.09;;;6.24;73.42
75891;BME280;64571;47.512;19.054;2024-01-27T03:03:15;101143.16;;;6.20;72.99
75891;BME280;64571;47.512;19.054;2024-01-27T03:06:18;101156.13;;;6.20;72.27
75891;BME280;64571;47.512;19.054;2024-01-27T03:09:20;101171.50;;;6.16;72.32
75891;BME280;64571;47.512;19.054;2024-01-27T03:12:23;101178.97;;;6.15;72.08
75891;BME280;64571;47.512;19.054;2024-01-27T03:15:25;101188.34;;;6.14;72.01
75891;BME280;64571;47.512;19.054;2024-01-27T03:18:28;101197.09;;;6.11;72.00
75891;BME280;64571;47.512;19.054;2024-01-27T03:21:31;101214.75;;;6.10;71.66
75891;BME280;64571;47.512;19.054;2024-01-27T03:24:34;101223.50;;;6.07;72.00
75891;BME280;64571;47.512;19.054;2024-01-27T03:27:36;101231.47;;;6.03;72.27
75891;BME280;64571;47.512;19.054;2024-01-27T03:30:39;101231.97;;;6.00;72.73
75891;BME280;64571;47.512;19.054;2024-01-27T03:33:42;101239.88;;;5.97;72.95
75891;BME280;64571;47.512;19.054;2024-01-27T03:36:48;101259.69;;;5.94;73.00
75891;BME280;64571;47.512;19.054;2024-01-27T03:39:51;101256.91;;;5.94;72.97
75891;BME280;64571;47.512;19.054;2024-01-27T03:42:54;101269.16;;;5.86;73.35
75891;BME280;64571;47.512;19.054;2024-01-27T03:45:59;101282.72;;;5.88;74.16
75891;BME280;64571;47.512;19.054;2024-01-27T03:49:02;101273.84;;;5.86;73.26
75891;BME280;64571;47.512;19.054;2024-01-27T03:52:05;101269.66;;;5.83;73.10
75891;BME280;64571;47.512;19.054;2024-01-27T03:55:08;101281.88;;;5.87;73.60
75891;BME280;64571;47.512;19.054;2024-01-27T03:58:10;101283.19;;;5.84;74.02
75891;BME280;64571;47.512;19.054;2024-01-27T04:01:14;101294.13;;;5.79;74.43
75891;BME280;64571;47.512;19.054;2024-01-27T04:04:17;101290.69;;;5.72;75.34
75891;BME280;64571;47.512;19.054;2024-01-27T04:07:19;101309.38;;;5.70;75.37
75891;BME280;64571;47.512;19.054;2024-01-27T04:10:22;101313.22;;;5.69;75.75
75891;BME280;64571;47.512;19.054;2024-01-27T04:13:25;101315.25;;;5.74;75.40
75891;BME280;64571;47.512;19.054;2024-01-27T04:16:28;101321.69;;;5.79;75.68
75891;BME280;64571;47.512;19.054;2024-01-27T04:19:30;101326.62;;;5.77;75.49
75891;BME280;64571;47.512;19.054;2024-01-27T04:22:34;101331.44;;;5.70;75.72
75891;BME280;64571;47.512;19.054;2024-01-27T04:25:37;101350.47;;;5.72;76.07
75891;BME280;64571;47.512;19.054;2024-01-27T04:28:39;101355.06;;;5.66;76.39
75891;BME280;64571;47.512;19.054;2024-01-27T04:31:42;101365.50;;;5.64;76.83
75891;BME280;64571;47.512;19.054;2024-01-27T04:34:44;101360.47;;;5.61;76.82
75891;BME280;64571;47.512;19.054;2024-01-27T04:37:47;101369.72;;;5.55;77.16
75891;BME280;64571;47.512;19.054;2024-01-27T04:40:51;101383.50;;;5.55;77.39
75891;BME280;64571;47.512;19.054;2024-01-27T04:43:53;101379.66;;;5.56;77.50
75891;BME280;64571;47.512;19.054;2024-01-27T04:46:58;101397.50;;;5.53;77.68
75891;BME280;64571;47.512;19.054;2024-01-27T04:50:00;101397.16;;;5.50;77.81
75891;BME280;64571;47.512;19.054;2024-01-27T04:53:03;101395.12;;;5.45;77.44
75891;BME280;64571;47.512;19.054;2024-01-27T04:56:06;101393.44;;;5.44;77.73
75891;BME280;64571;47.512;19.054;2024-01-27T04:59:10;101393.69;;;5.43;77.76
75891;BME280;64571;47.512;19.054;2024-01-27T05:02:12;101398.22;;;5.37;77.59
75891;BME280;64571;47.512;19.054;2024-01-27T05:05:15;101389.00;;;5.31;77.26
75891;BME280;64571;47.512;19.054;2024-01-27T05:08:18;101403.37;;;5.33;76.42
75891;BME280;64571;47.512;19.054;2024-01-27T05:11:30;101397.50;;;5.30;76.26
75891;BME280;64571;47.512;19.054;2024-01-27T05:14:33;101398.84;;;5.27;75.75
75891;BME280;64571;47.512;19.054;2024-01-27T05:17:36;101411.53;;;5.28;75.16
75891;BME280;64571;47.512;19.054;2024-01-27T05:20:38;101422.44;;;5.23;75.18
75891;BME280;64571;47.512;19.054;2024-01-27T05:23:41;101415.72;;;5.19;74.99
75891;BME280;64571;47.512;19.054;2024-01-27T05:26:43;101400.47;;;5.17;73.82
75891;BME280;64571;47.512;19.054;2024-01-27T05:29:46;101416.78;;;5.18;73.27
75891;BME280;64571;47.512;19.054;2024-01-27T05:32:49;101415.47;;;5.21;72.17
75891;BME280;64571;47.512;19.054;2024-01-27T05:35:51;101417.63;;;5.19;71.53
75891;BME280;64571;47.512;19.054;2024-01-27T05:38:54;101422.31;;;5.18;71.60
75891;BME280;64571;47.512;19.054;2024-01-27T05:41:57;101414.25;;;5.17;71.44
75891;BME280;64571;47.512;19.054;2024-01-27T05:44:59;101423.84;;;5.14;70.74
75891;BME280;64571;47.512;19.054;2024-01-27T05:48:02;101425.41;;;5.10;70.68
75891;BME280;64571;47.512;19.054;2024-01-27T05:51:05;101425.62;;;5.08;70.18
75891;BME280;64571;47.512;19.054;2024-01-27T05:54:07;101442.12;;;5.08;70.19
75891;BME280;64571;47.512;19.054;2024-01-27T05:57:12;101454.25;;;5.07;69.35
75891;BME280;64571;47.512;19.054;2024-01-27T06:00:15;101446.59;;;5.10;67.82
75891;BME280;64571;47.512;19.054;2024-01-27T06:03:17;101434.75;;;5.09;67.49
75891;BME280;64571;47.512;19.054;2024-01-27T06:06:20;101456.66;;;5.16;66.48
75891;BME280;64571;47.512;19.054;2024-01-27T06:09:23;101446.47;;;5.16;66.01
75891;BME280;64571;47.512;19.054;2024-01-27T06:12:25;101467.03;;;5.32;65.17
75891;BME280;64571;47.512;19.054;2024-01-27T06:15:28;101476.34;;;5.19;64.96
75891;BME280;64571;47.512;19.054;2024-01-27T06:18:31;101478.00;;;5.20;64.88
75891;BME280;64571;47.512;19.054;2024-01-27T06:21:33;101477.87;;;5.15;64.87
75891;BME280;64571;47.512;19.054;2024-01-27T06:24:41;101479.69;;;5.21;64.70
75891;BME280;64571;47.512;19.054;2024-01-27T06:27:45;101472.12;;;5.17;64.77
75891;BME280;64571;47.512;19.054;2024-01-27T06:30:47;101477.41;;;5.18;65.29
75891;BME280;64571;47.512;19.054;2024-01-27T06:33:50;101486.72;;;5.17;66.09
75891;BME280;64571;47.512;19.054;2024-01-27T06:36:53;101484.47;;;5.14;66.92
75891;BME280;64571;47.512;19.054;2024-01-27T06:39:56;101499.28;;;5.13;66.95
75891;BME280;64571;47.512;19.054;2024-01-27T06:42:58;101502.69;;;5.15;67.34
75891;BME280;64571;47.512;19.054;2024-01-27T06:46:04;101499.28;;;5.13;67.19
75891;BME280;64571;47.512;19.054;2024-01-27T06:49:07;101502.28;;;5.12;67.15
75891;BME280;64571;47.512;19.054;2024-01-27T06:52:10;101507.94;;;5.17;67.81
75891;BME280;64571;47.512;19.054;2024-01-27T06:55:14;101523.88;;;5.15;67.76
75891;BME280;64571;47.512;19.054;2024-01-27T06:58:17;101521.97;;;5.15;67.45
75891;BME280;64571;47.512;19.054;2024-01-27T07:01:19;101524.09;;;5.13;67.96
75891;BME280;64571;47.512;19.054;2024-01-27T07:04:23;101542.91;;;5.16;67.81
75891;BME280;64571;47.512;19.054;2024-01-27T07:07:27;101540.53;;;5.20;67.13
75891;BME280;64571;47.512;19.054;2024-01-27T07:10:30;101536.50;;;5.22;66.86
75891;BME280;64571;47.512;19.054;2024-01-27T07:13:32;101528.56;;;5.26;66.10
75891;BME280;64571;47.512;19.054;2024-01-27T07:16:35;101539.50;;;5.32;66.54
75891;BME280;64571;47.512;19.054;2024-01-27T07:19:38;101553.88;;;5.34;66.55
75891;BME280;64571;47.512;19.054;2024-01-27T07:22:41;101547.91;;;5.38;67.10
75891;BME280;64571;47.512;19.054;2024-01-27T07:25:44;101549.97;;;5.42;67.46
75891;BME280;64571;47.512;19.054;2024-01-27T07:28:47;101542.16;;;5.39;67.32
75891;BME280;64571;47.512;19.054;2024-01-27T07:31:49;101533.19;;;5.44;67.28
75891;BME280;64571;47.512;19.054;2024-01-27T07:34:52;101533.81;;;5.46;67.71
75891;BME280;64571;47.512;19.054;2024-01-27T07:37:55;101532.72;;;5.47;67.99
75891;BME280;64571;47.512;19.054;2024-01-27T07:40:58;101538.59;;;5.50;67.97
75891;BME280;64571;47.512;19.054;2024-01-27T07:44:12;101536.56;;;5.57;67.57
75891;BME280;64571;47.512;19.054;2024-01-27T07:47:15;101537.31;;;5.65;67.36
75891;BME280;64571;47.512;19.054;2024-01-27T07:50:18;101528.19;;;5.76;66.90
75891;BME280;64571;47.512;19.054;2024-01-27T07:53:21;101532.78;;;5.82;67.01
75891;BME280;64571;47.512;19.054;2024-01-27T07:56:24;101546.22;;;5.90;66.87
75891;BME280;64571;47.512;19.054;2024-01-27T07:59:27;101545.28;;;5.96;66.83
75891;BME280;64571;47.512;19.054;2024-01-27T08:02:29;101539.66;;;6.03;66.65
75891;BME280;64571;47.512;19.054;2024-01-27T08:05:32;101525.75;;;6.09;66.53
75891;BME280;64571;47.512;19.054;2024-01-27T08:08:34;101536.91;;;6.15;66.44
75891;BME280;64571;47.512;19.054;2024-01-27T08:11:37;101535.81;;;6.16;66.68
75891;BME280;64571;47.512;19.054;2024-01-27T08:14:39;101550.31;;;6.34;66.49
75891;BME280;64571;47.512;19.054;2024-01-27T08:17:42;101548.37;;;6.47;66.14
75891;BME280;64571;47.512;19.054;2024-01-27T08:20:45;101548.41;;;6.35;65.68
75891;BME280;64571;47.512;19.054;2024-01-27T08:23:47;101563.28;;;6.46;64.71
75891;BME280;64571;47.512;19.054;2024-01-27T08:26:50;101574.59;;;6.44;64.92
75891;BME280;64571;47.512;19.054;2024-01-27T08:29:53;101578.97;;;6.57;64.94
75891;BME280;64571;47.512;19.054;2024-01-27T08:32:59;101579.59;;;6.59;65.09
75891;BME280;64571;47.512;19.054;2024-01-27T08:36:02;101568.91;;;6.51;64.54
75891;BME280;64571;47.512;19.054;2024-01-27T08:39:04;101591.59;;;6.65;64.46
75891;BME280;64571;47.512;19.054;2024-01-27T08:42:10;101587.88;;;6.59;64.17
75891;BME280;64571;47.512;19.054;2024-01-27T08:45:13;101599.16;;;6.69;64.07
75891;BME280;64571;47.512;19.054;2024-01-27T08:48:16;101618.97;;;6.78;63.96
75891;BME280;64571;47.512;19.054;2024-01-27T08:51:18;101622.34;;;6.80;63.60
75891;BME280;64571;47.512;19.054;2024-01-27T08:54:22;101617.41;;;7.22;62.50
75891;BME280;64571;47.512;19.054;2024-01-27T08:57:26;101628.66;;;7.32;62.21
75891;BME280;64571;47.512;19.054;2024-01-27T09:00:29;101624.22;;;7.03;62.27
75891;BME280;64571;47.512;19.054;2024-01-27T09:03:32;101622.28;;;7.03;62.79
75891;BME280;64571;47.512;19.054;2024-01-27T09:06:35;101617.47;;;6.99;62.94
75891;BME280;64571;47.512;19.054;2024-01-27T09:09:38;101614.34;;;7.07;63.16
75891;BME280;64571;47.512;19.054;2024-01-27T09:12:42;101618.06;;;7.01;63.12
75891;BME280;64571;47.512;19.054;2024-01-27T09:15:45;101614.38;;;6.83;63.24
75891;BME280;64571;47.512;19.054;2024-01-27T09:18:47;101605.34;;;7.00;63.31
75891;BME280;64571;47.512;19.054;2024-01-27T09:21:52;101613.16;;;7.03;62.64
75891;BME280;64571;47.512;19.054;2024-01-27T09:24:55;101605.19;;;7.06;62.72
75891;BME280;64571;47.512;19.054;2024-01-27T09:27:57;101616.81;;;7.20;62.53
75891;BME280;64571;47.512;19.054;2024-01-27T09:31:03;101605.78;;;7.08;62.42
75891;BME280;64571;47.512;19.054;2024-01-27T09:34:05;101610.78;;;7.23;62.12
75891;BME280;64571;47.512;19.054;2024-01-27T09:37:08;101614.28;;;7.19;61.79
75891;BME280;64571;47.512;19.054;2024-01-27T09:40:11;101615.00;;;7.26;61.43
75891;BME280;64571;47.512;19.054;2024-01-27T09:43:16;101611.16;;;7.27;61.03
75891;BME280;64571;47.512;19.054;2024-01-27T09:46:20;101612.87;;;7.16;61.03
75891;BME280;64571;47.512;19.054;2024-01-27T09:49:25;101616.37;;;7.00;61.56
75891;BME280;64571;47.512;19.054;2024-01-27T09:52:29;101623.03;;;7.27;61.17
75891;BME280;64571;47.512;19.054;2024-01-27T09:55:31;101624.34;;;7.25;60.79
75891;BME280;64571;47.512;19.054;2024-01-27T09:58:34;101644.31;;;7.27;60.64
75891;BME280;64571;47.512;19.054;2024-01-27T10:01:38;101646.69;;;7.35;59.85
75891;BME280;64571;47.512;19.054;2024-01-27T10:04:41;101650.97;;;7.43;59.59
75891;BME280;64571;47.512;19.054;2024-01-27T10:07:45;101653.63;;;7.49;59.36
75891;BME280;64571;47.512;19.054;2024-01-27T10:10:47;101644.63;;;7.42;58.78
75891;BME280;64571;47.512;19.054;2024-01-27T10:13:57;101629.03;;;7.36;58.99
75891;BME280;64571;47.512;19.054;2024-01-27T10:17:01;101620.16;;;7.51;58.80
75891;BME280;64571;47.512;19.054;2024-01-27T10:20:05;101645.06;;;7.51;58.42
75891;BME280;64571;47.512;19.054;2024-01-27T10:23:12;101641.72;;;7.49;58.00
75891;BME280;64571;47.512;19.054;2024-01-27T10:26:15;101640.59;;;7.61;56.76
75891;BME280;64571;47.512;19.054;2024-01-27T10:29:18;101630.50;;;7.55;56.83
75891;BME280;64571;47.512;19.054;2024-01-27T10:32:21;101625.97;;;7.49;56.42
75891;BME280;64571;47.512;19.054;2024-01-27T10:35:26;101620.88;;;7.58;56.17
75891;BME280;64571;47.512;19.054;2024-01-27T10:38:38;101614.62;;;7.79;55.23
75891;BME280;64571;47.512;19.054;2024-01-27T10:41:44;101620.84;;;7.86;54.14
75891;BME280;64571;47.512;19.054;2024-01-27T10:44:47;101627.53;;;7.91;52.95
75891;BME280;64571;47.512;19.054;2024-01-27T10:47:50;101625.09;;;7.77;53.43
75891;BME280;64571;47.512;19.054;2024-01-27T10:50:54;101635.75;;;7.85;53.68
75891;BME280;64571;47.512;19.054;2024-01-27T10:54:01;101630.13;;;7.80;53.51
75891;BME280;64571;47.512;19.054;2024-01-27T10:57:05;101638.00;;;7.72;54.36
75891;BME280;64571;47.512;19.054;2024-01-27T11:00:10;101648.50;;;7.86;53.84
75891;BME280;64571;47.512;19.054;2024-01-27T11:03:15;101632.41;;;7.83;53.95
75891;BME280;64571;47.512;19.054;2024-01-27T11:06:22;101632.59;;;7.94;53.96
75891;BME280;64571;47.512;19.054;2024-01-27T11:09:25;101628.03;;;7.87;53.19
75891;BME280;64571;47.512;19.054;2024-01-27T11:12:28;101644.31;;;7.84;53.73
75891;BME280;64571;47.512;19.054;2024-01-27T11:15:32;101633.25;;;7.84;53.35
75891;BME280;64571;47.512;19.054;2024-01-27T11:18:35;101619.50;;;7.89;53.27
75891;BME280;64571;47.512;19.054;2024-01-27T11:21:38;101610.78;;;8.14;52.77
75891;BME280;64571;47.512;19.054;2024-01-27T11:24:42;101622.53;;;8.21;52.21
75891;BME280;64571;47.512;19.054;2024-01-27T11:27:45;101595.09;;;8.03;52.25
75891;BME280;64571;47.512;19.054;2024-01-27T11:30:49;101607.16;;;8.13;51.64
75891;BME280;64571;47.512;19.054;2024-01-27T11:33:52;101606.66;;;7.83;52.35
75891;BME280;64571;47.512;19.054;2024-01-27T11:36:56;101613.53;;;7.80;52.11
75891;BME280;64571;47.512;19.054;2024-01-27T11:40:06;101626.87;;;7.83;51.70
75891;BME280;64571;47.512;19.054;2024-01-27T11:43:11;101616.87;;;7.82;51.57
75891;BME280;64571;47.512;19.054;2024-01-27T11:46:16;101586.44;;;7.99;51.33
75891;BME280;64571;47.512;19.054;2024-01-27T11:49:19;101600.34;;;7.87;51.34
75891;BME280;64571;47.512;19.054;2024-01-27T11:52:21;101604.41;;;7.80;51.58
75891;BME280;64571;47.512;19.054;2024-01-27T11:55:24;101619.50;;;7.89;51.73
75891;BME280;64571;47.512;19.054;2024-01-27T11:58:27;101615.59;;;7.73;52.48
75891;BME280;64571;47.512;19.054;2024-01-27T12:01:30;101614.88;;;7.95;52.60
75891;BME280;64571;47.512;19.054;2024-01-27T12:04:33;101614.62;;;8.13;53.03
75891;BME280;64571;47.512;19.054;2024-01-27T12:07:36;101635.44;;;7.99;52.60
75891;BME280;64571;47.512;19.054;2024-01-27T12:10:39;101635.25;;;7.72;53.44
75891;BME280;64571;47.512;19.054;2024-01-27T12:13:41;101652.38;;;7.85;53.00
75891;BME280;64571;47.512;19.054;2024-01-27T12:16:44;101644.50;;;7.94;53.14
75891;BME280;64571;47.512;19.054;2024-01-27T12:19:48;101641.91;;;8.21;52.46
75891;BME280;64571;47.512;19.054;2024-01-27T12:23:05;101653.03;;;8.38;51.78
75891;BME280;64571;47.512;19.054;2024-01-27T12:26:14;101653.94;;;8.60;51.17
75891;BME280;64571;47.512;19.054;2024-01-27T12:29:20;101679.25;;;8.86;50.68
75891;BME280;64571;47.512;19.054;2024-01-27T12:32:22;101648.31;;;8.39;50.56
75891;BME280;64571;47.512;19.054;2024-01-27T12:35:26;101636.94;;;8.23;51.36
75891;BME280;64571;47.512;19.054;2024-01-27T12:38:32;101658.69;;;7.69;52.15
75891;BME280;64571;47.512;19.054;2024-01-27T12:41:35;101634.88;;;7.68;52.62
75891;BME280;64571;47.512;19.054;2024-01-27T12:44:38;101627.81;;;7.60;52.50
75891;BME280;64571;47.512;19.054;2024-01-27T12:47:41;101615.09;;;7.59;53.12
75891;BME280;64571;47.512;19.054;2024-01-27T12:50:44;101621.97;;;7.57;53.47
75891;BME280;64571;47.512;19.054;2024-01-27T12:53:46;101631.53;;;7.66;54.05
75891;BME280;64571;47.512;19.054;2024-01-27T12:56:49;101613.44;;;7.30;54.28
75891;BME280;64571;47.512;19.054;2024-01-27T12:59:52;101623.78;;;7.11;55.01
75891;BME280;64571;47.512;19.054;2024-01-27T13:02:54;101621.84;;;7.23;55.02
75891;BME280;64571;47.512;19.054;2024-01-27T13:05:58;101604.06;;;7.19;54.89
75891;BME280;64571;47.512;19.054;2024-01-27T13:09:00;101596.59;;;7.20;54.86
75891;BME280;64571;47.512;19.054;2024-01-27T13:12:04;101598.50;;;7.31;54.77
75891;BME280;64571;47.512;19.054;2024-01-27T13:15:06;101603.50;;;7.17;54.82
75891;BME280;64571;47.512;19.054;2024-01-27T13:18:10;101596.88;;;7.18;54.77
75891;BME280;64571;47.512;19.054;2024-01-27T13:21:14;101575.09;;;7.22;54.58
75891;BME280;64571;47.512;19.054;2024-01-27T13:24:17;101569.22;;;7.18;54.63
75891;BME280;64571;47.512;19.054;2024-01-27T13:27:19;101577.78;;;7.17;54.62
75891;BME280;64571;47.512;19.054;2024-01-27T13:30:22;101580.91;;;7.08;54.46
75891;BME280;64571;47.512;19.054;2024-01-27T13:33:26;101600.84;;;7.10;54.36
75891;BME280;64571;47.512;19.054;2024-01-27T13:36:31;101612.06;;;7.04;54.45
75891;BME280;64571;47.512;19.054;2024-01-27T13:39:34;101597.78;;;6.95;54.21
75891;BME280;64571;47.512;19.054;2024-01-27T13:42:38;101593.19;;;7.01;54.14
75891;BME280;64571;47.512;19.054;2024-01-27T13:45:40;101601.97;;;6.98;54.30
75891;BME280;64571;47.512;19.054;2024-01-27T13:48:43;101621.91;;;7.00;54.27
75891;BME280;64571;47.512;19.054;2024-01-27T13:51:46;101615.91;;;7.03;54.38
75891;BME280;64571;47.512;19.054;2024-01-27T13:54:49;101613.28;;;6.96;54.04
75891;BME280;64571;47.512;19.054;2024-01-27T13:57:52;101636.09;;;7.03;54.15
75891;BME280;64571;47.512;19.054;2024-01-27T14:00:55;101630.56;;;7.03;54.44
75891;BME280;64571;47.512;19.054;2024-01-27T14:03:58;101637.03;;;7.09;54.38
75891;BME280;64571;47.512;19.054;2024-01-27T14:07:01;101635.72;;;7.12;54.33
75891;BME280;64571;47.512;19.054;2024-01-27T14:10:09;101632.12;;;6.99;54.37
75891;BME280;64571;47.512;19.054;2024-01-27T14:13:11;101617.97;;;6.96;54.33
75891;BME280;64571;47.512;19.054;2024-01-27T14:16:14;101646.19;;;6.98;54.44
75891;BME280;64571;47.512;19.054;2024-01-27T14:19:17;101645.75;;;6.89;54.53
75891;BME280;64571;47.512;19.054;2024-01-27T14:22:20;101657.03;;;6.88;54.71
75891;BME280;64571;47.512;19.054;2024-01-27T14:25:22;101647.78;;;6.82;55.04
75891;BME280;64571;47.512;19.054;2024-01-27T14:28:25;101654.16;;;6.82;55.26
75891;BME280;64571;47.512;19.054;2024-01-27T14:31:28;101648.50;;;6.77;55.45
75891;BME280;64571;47.512;19.054;2024-01-27T14:34:32;101646.34;;;6.79;55.84
75891;BME280;64571;47.512;19.054;2024-01-27T14:37:35;101636.63;;;6.65;56.14
75891;BME280;64571;47.512;19.054;2024-01-27T14:40:39;101631.22;;;6.58;56.60
75891;BME280;64571;47.512;19.054;2024-01-27T14:43:41;101625.81;;;6.64;57.47
75891;BME280;64571;47.512;19.054;2024-01-27T14:46:44;101623.69;;;6.54;58.38
75891;BME280;64571;47.512;19.054;2024-01-27T14:49:46;101616.34;;;6.48;58.19
75891;BME280;64571;47.512;19.054;2024-01-27T14:52:49;101609.97;;;6.47;57.98
75891;BME280;64571;47.512;19.054;2024-01-27T14:55:52;101630.88;;;6.55;57.59
75891;BME280;64571;47.512;19.054;2024-01-27T14:58:55;101649.12;;;6.56;57.29
75891;BME280;64571;47.512;19.054;2024-01-27T15:01:58;101650.31;;;6.60;57.10
75891;BME280;64571;47.512;19.054;2024-01-27T15:05:01;101636.50;;;6.60;57.03
75891;BME280;64571;47.512;19.054;2024-01-27T15:08:04;101646.34;;;6.56;57.02
75891;BME280;64571;47.512;19.054;2024-01-27T15:11:07;101652.22;;;6.48;56.86
75891;BME280;64571;47.512;19.054;2024-01-27T15:14:09;101638.56;;;6.41;56.94
75891;BME280;64571;47.512;19.054;2024-01-27T15:17:12;101628.09;;;6.43;57.01
75891;BME280;64571;47.512;19.054;2024-01-27T15:20:14;101636.75;;;6.47;57.09
75891;BME280;64571;47.512;19.054;2024-01-27T15:23:17;101650.81;;;6.45;57.22
75891;BME280;64571;47.512;19.054;2024-01-27T15:26:22;101641.69;;;6.45;57.42
75891;BME280;64571;47.512;19.054;2024-01-27T15:29:25;101661.13;;;6.50;57.42
75891;BME280;64571;47.512;19.054;2024-01-27T15:32:27;101658.72;;;6.42;57.25
75891;BME280;64571;47.512;19.054;2024-01-27T15:35:31;101653.19;;;6.42;57.43
75891;BME280;64571;47.512;19.054;2024-01-27T15:38:35;101654.88;;;6.43;57.48
75891;BME280;64571;47.512;19.054;2024-01-27T15:41:38;101642.63;;;6.39;57.58
75891;BME280;64571;47.512;19.054;2024-01-27T15:44:42;101643.84;;;6.43;57.79
75891;BME280;64571;47.512;19.054;2024-01-27T15:47:45;101650.69;;;6.40;57.85
75891;BME280;64571;47.512;19.054;2024-01-27T15:50:47;101632.09;;;6.36;58.00
75891;BME280;64571;47.512;19.054;2024-01-27T15:53:50;101631.72;;;6.32;57.94
75891;BME280;64571;47.512;19.054;2024-01-27T15:56:52;101639.75;;;6.33;58.05